Pierceville, IN (47039)

6:58 PM EDT on July 04, 2015 (GMT -0400)
APRSWXNET | | Change Station
CLOSE
Current Station
Personal Weather Station
Location: Versailles, IN
Elevation: 961 ft
Nearby Weather Stations

Elev 961 ft 39.07 °N, 85.25 °W | Updated 19 minutes ago

Mostly Cloudy
Mostly Cloudy
78 °F
Feels Like 80 °F
N
1
Wind Variable Wind from NNW
Gusts 3.0 mph

Today
High -- | Low -- °F
--% Chance of Precip.
Yesterday
High -- | Low -- °F
Precip. -- in
6:19 AM 9:10 PM
Waning Gibbous, 89% visible
Pressure 29.96 in
Visibility 8.0 miles
Clouds Few 4000 ft
Scattered Clouds 25000 ft
Heat Index 80 °F
Dew Point 66 °F
Humidity 67%
Rainfall in
Snow Depth Not available.
UV 2 out of 12
Pollen 2.50 out of 12
Air Quality Not available.
Flu Activity Not available.
METAR KCVG 042252Z 34003KT 8SM FEW040 SCT250 26/17 A2999 RMK AO2 SLP146 T02560172

More Conditions Fewer Conditions

Pressure 29.96 in
Visibility 8.0 miles
Clouds Few 4000 ft
Scattered Clouds 25000 ft
Heat Index 80 °F
Dew Point 66 °F
Humidity 67%
Rainfall in
Snow Depth Not available.
UV 2 out of 12
Pollen 2.50 out of 12
Air Quality Not available.
Flu Activity Not available.
METAR KCVG 042252Z 34003KT 8SM FEW040 SCT250 26/17 A2999 RMK AO2 SLP146 T02560172

More Conditions Fewer Conditions

10-Day Weather Forecast

×

Almanac

Astronomy

Jul. 04, 2015 Rise Set
Actual Time
Civil Twilight
Nautical Twilight
Astronomical Twilight
Moon
Length of Visible Light
Length of Day
Tomorrow will be .
, % of the Moon is Illuminated

Today's Extremes

State Highs State Lows

Community

WunderPhotos

Upload Photos

1,835,105 photos uploaded!

WunderBlogs® & News

Nearby

Air Quality

  Air Quality AQ Index Pollutant
Not available.

Snow Depth

Station Depth Elevation

Earthquake Activity

City Distance Mag. Time & Date
Minimum magnitude displayed is 2.5.

Coastal Water Temperatures

Place Temperature

Stations

Nearby Weather Stations

Station Location Temp. Windchill Dew Point Humidity Wind Precip. Elev Updated Type